Anthony, Pennsylvania
Current Conditions -  °F | °C
As of 12:54 PM on Monday 22 Dec 2014 (Local Time) from KIPT Reporting Station
Overcast Overcast  
Wind Chill:   Ceiling: 4000
Heat Index:   Visibility: 10mi
Dew Point: -4°   Wind: 3mph
Humidity: 67%   Direction: NA
Pressure: 30.22"   Gusts: NA
Location:  41.1183°N, 76.7254°W
Report Text: KIPT 221754Z VRB03KT 10SM SCT020 OVC040 02/M04 A3022 RMK AO2 SLP240 T00171039 10017 21061 58030
Loading
Personal Weather Stations






























Interactive Weather Map New forecast layout! Learn more

10-Day Weather Forecast

Advertisements
Track Severe Weather on mobile